sensor_id;sensor_type;location;lat;lon;timestamp;P1;durP1;ratioP1;P2;durP2;ratioP2
51286;SDS011;37364;46.974;18.916;2023-03-01T00:00:23;37.97;;;20.83;;
51286;SDS011;37364;46.974;18.916;2023-03-01T00:02:54;26.42;;;19.35;;
51286;SDS011;37364;46.974;18.916;2023-03-01T00:05:24;31.02;;;21.40;;
51286;SDS011;37364;46.974;18.916;2023-03-01T00:07:54;36.75;;;22.48;;
51286;SDS011;37364;46.974;18.916;2023-03-01T00:10:24;31.88;;;21.38;;
51286;SDS011;37364;46.974;18.916;2023-03-01T00:12:55;31.55;;;22.27;;
51286;SDS011;37364;46.974;18.916;2023-03-01T00:15:28;26.45;;;20.60;;
51286;SDS011;37364;46.974;18.916;2023-03-01T00:17:59;35.88;;;21.02;;
51286;SDS011;37364;46.974;18.916;2023-03-01T00:20:29;32.70;;;21.00;;
51286;SDS011;37364;46.974;18.916;2023-03-01T00:23:00;26.25;;;19.38;;
51286;SDS011;37364;46.974;18.916;2023-03-01T00:25:30;28.23;;;20.42;;
51286;SDS011;37364;46.974;18.916;2023-03-01T00:28:01;27.63;;;19.67;;
51286;SDS011;37364;46.974;18.916;2023-03-01T00:30:34;24.80;;;18.77;;
51286;SDS011;37364;46.974;18.916;2023-03-01T00:33:05;37.28;;;20.17;;
51286;SDS011;37364;46.974;18.916;2023-03-01T00:35:35;30.15;;;20.65;;
51286;SDS011;37364;46.974;18.916;2023-03-01T00:38:06;31.60;;;21.05;;
51286;SDS011;37364;46.974;18.916;2023-03-01T00:40:37;32.05;;;20.63;;
51286;SDS011;37364;46.974;18.916;2023-03-01T00:43:08;32.30;;;21.75;;
51286;SDS011;37364;46.974;18.916;2023-03-01T00:45:40;30.27;;;21.15;;
51286;SDS011;37364;46.974;18.916;2023-03-01T00:48:11;31.88;;;21.13;;
51286;SDS011;37364;46.974;18.916;2023-03-01T00:50:41;40.25;;;19.75;;
51286;SDS011;37364;46.974;18.916;2023-03-01T00:53:12;28.00;;;19.60;;
51286;SDS011;37364;46.974;18.916;2023-03-01T00:55:42;29.33;;;21.00;;
51286;SDS011;37364;46.974;18.916;2023-03-01T00:58:13;26.42;;;19.42;;
51286;SDS011;37364;46.974;18.916;2023-03-01T01:00:47;32.25;;;21.10;;
51286;SDS011;37364;46.974;18.916;2023-03-01T01:03:18;35.42;;;21.58;;
51286;SDS011;37364;46.974;18.916;2023-03-01T01:05:48;29.23;;;20.58;;
51286;SDS011;37364;46.974;18.916;2023-03-01T01:08:19;27.95;;;20.17;;
51286;SDS011;37364;46.974;18.916;2023-03-01T01:10:50;28.60;;;19.95;;
51286;SDS011;37364;46.974;18.916;2023-03-01T01:13:20;29.60;;;19.85;;
51286;SDS011;37364;46.974;18.916;2023-03-01T01:15:53;32.10;;;19.80;;
51286;SDS011;37364;46.974;18.916;2023-03-01T01:18:24;25.33;;;19.50;;
51286;SDS011;37364;46.974;18.916;2023-03-01T01:20:54;29.10;;;18.73;;
51286;SDS011;37364;46.974;18.916;2023-03-01T01:23:24;25.77;;;19.02;;
51286;SDS011;37364;46.974;18.916;2023-03-01T01:25:54;26.77;;;18.98;;
51286;SDS011;37364;46.974;18.916;2023-03-01T01:28:26;27.33;;;20.80;;
51286;SDS011;37364;46.974;18.916;2023-03-01T01:30:59;32.20;;;20.73;;
51286;SDS011;37364;46.974;18.916;2023-03-01T01:33:30;30.27;;;19.48;;
51286;SDS011;37364;46.974;18.916;2023-03-01T01:36:01;26.70;;;18.98;;
51286;SDS011;37364;46.974;18.916;2023-03-01T01:38:35;26.60;;;19.45;;
51286;SDS011;37364;46.974;18.916;2023-03-01T01:41:06;32.60;;;19.33;;
51286;SDS011;37364;46.974;18.916;2023-03-01T01:43:38;23.88;;;18.08;;
51286;SDS011;37364;46.974;18.916;2023-03-01T01:46:18;34.72;;;18.88;;
51286;SDS011;37364;46.974;18.916;2023-03-01T01:48:59;31.30;;;21.05;;
51286;SDS011;37364;46.974;18.916;2023-03-01T01:51:35;32.25;;;18.35;;
51286;SDS011;37364;46.974;18.916;2023-03-01T01:54:12;34.03;;;20.23;;
51286;SDS011;37364;46.974;18.916;2023-03-01T01:56:47;26.85;;;18.83;;
51286;SDS011;37364;46.974;18.916;2023-03-01T01:59:22;29.92;;;20.27;;
51286;SDS011;37364;46.974;18.916;2023-03-01T02:01:56;31.33;;;20.10;;
51286;SDS011;37364;46.974;18.916;2023-03-01T02:04:31;29.48;;;20.48;;
51286;SDS011;37364;46.974;18.916;2023-03-01T02:07:03;31.98;;;22.35;;
51286;SDS011;37364;46.974;18.916;2023-03-01T02:09:38;29.48;;;20.33;;
51286;SDS011;37364;46.974;18.916;2023-03-01T02:12:10;36.58;;;23.55;;
51286;SDS011;37364;46.974;18.916;2023-03-01T02:14:42;41.17;;;23.35;;
51286;SDS011;37364;46.974;18.916;2023-03-01T02:17:16;50.85;;;28.48;;
51286;SDS011;37364;46.974;18.916;2023-03-01T02:19:52;59.17;;;23.17;;
51286;SDS011;37364;46.974;18.916;2023-03-01T02:22:34;38.20;;;24.27;;
51286;SDS011;37364;46.974;18.916;2023-03-01T02:25:09;38.03;;;24.75;;
51286;SDS011;37364;46.974;18.916;2023-03-01T02:27:51;36.67;;;24.98;;
51286;SDS011;37364;46.974;18.916;2023-03-01T02:30:33;40.25;;;24.58;;
51286;SDS011;37364;46.974;18.916;2023-03-01T02:33:25;49.63;;;24.27;;
51286;SDS011;37364;46.974;18.916;2023-03-01T02:35:53;38.47;;;24.17;;
51286;SDS011;37364;46.974;18.916;2023-03-01T02:38:25;48.97;;;26.13;;
51286;SDS011;37364;46.974;18.916;2023-03-01T02:40:56;34.40;;;24.10;;
51286;SDS011;37364;46.974;18.916;2023-03-01T02:43:29;37.50;;;24.08;;
51286;SDS011;37364;46.974;18.916;2023-03-01T02:46:07;34.03;;;24.02;;
51286;SDS011;37364;46.974;18.916;2023-03-01T02:48:44;34.40;;;22.15;;
51286;SDS011;37364;46.974;18.916;2023-03-01T02:51:22;35.22;;;22.10;;
51286;SDS011;37364;46.974;18.916;2023-03-01T02:54:06;32.13;;;22.08;;
51286;SDS011;37364;46.974;18.916;2023-03-01T02:56:41;29.90;;;21.98;;
51286;SDS011;37364;46.974;18.916;2023-03-01T02:59:17;34.80;;;21.58;;
51286;SDS011;37364;46.974;18.916;2023-03-01T03:01:52;57.03;;;22.88;;
51286;SDS011;37364;46.974;18.916;2023-03-01T03:04:23;30.98;;;23.20;;
51286;SDS011;37364;46.974;18.916;2023-03-01T03:06:53;41.40;;;23.10;;
51286;SDS011;37364;46.974;18.916;2023-03-01T03:09:25;36.15;;;23.05;;
51286;SDS011;37364;46.974;18.916;2023-03-01T03:11:56;30.27;;;21.25;;
51286;SDS011;37364;46.974;18.916;2023-03-01T03:14:26;34.97;;;21.98;;
51286;SDS011;37364;46.974;18.916;2023-03-01T03:16:59;46.55;;;21.75;;
51286;SDS011;37364;46.974;18.916;2023-03-01T03:19:33;38.42;;;23.02;;
51286;SDS011;37364;46.974;18.916;2023-03-01T03:22:03;31.55;;;23.27;;
51286;SDS011;37364;46.974;18.916;2023-03-01T03:24:35;34.67;;;21.90;;
51286;SDS011;37364;46.974;18.916;2023-03-01T03:27:06;31.20;;;21.75;;
51286;SDS011;37364;46.974;18.916;2023-03-01T03:29:37;35.38;;;23.58;;
51286;SDS011;37364;46.974;18.916;2023-03-01T03:32:10;33.70;;;22.65;;
51286;SDS011;37364;46.974;18.916;2023-03-01T03:34:41;37.95;;;23.20;;
51286;SDS011;37364;46.974;18.916;2023-03-01T03:37:12;32.55;;;21.90;;
51286;SDS011;37364;46.974;18.916;2023-03-01T03:39:54;39.63;;;22.77;;
51286;SDS011;37364;46.974;18.916;2023-03-01T03:42:24;37.80;;;23.67;;
51286;SDS011;37364;46.974;18.916;2023-03-01T03:44:55;28.58;;;21.33;;
51286;SDS011;37364;46.974;18.916;2023-03-01T03:47:28;33.70;;;22.67;;
51286;SDS011;37364;46.974;18.916;2023-03-01T03:49:58;35.00;;;22.00;;
51286;SDS011;37364;46.974;18.916;2023-03-01T03:52:29;35.67;;;22.05;;
51286;SDS011;37364;46.974;18.916;2023-03-01T03:54:59;48.83;;;23.08;;
51286;SDS011;37364;46.974;18.916;2023-03-01T03:57:29;33.67;;;21.45;;
51286;SDS011;37364;46.974;18.916;2023-03-01T04:00:00;36.88;;;22.48;;
51286;SDS011;37364;46.974;18.916;2023-03-01T04:02:40;35.72;;;23.80;;
51286;SDS011;37364;46.974;18.916;2023-03-01T04:05:11;33.92;;;22.40;;
51286;SDS011;37364;46.974;18.916;2023-03-01T04:07:44;33.70;;;23.92;;
51286;SDS011;37364;46.974;18.916;2023-03-01T04:10:15;33.05;;;22.80;;
51286;SDS011;37364;46.974;18.916;2023-03-01T04:12:47;31.58;;;21.38;;
51286;SDS011;37364;46.974;18.916;2023-03-01T04:15:17;38.35;;;22.98;;
51286;SDS011;37364;46.974;18.916;2023-03-01T04:17:54;38.40;;;24.20;;
51286;SDS011;37364;46.974;18.916;2023-03-01T04:20:26;36.15;;;23.45;;
51286;SDS011;37364;46.974;18.916;2023-03-01T04:22:59;36.80;;;22.73;;
51286;SDS011;37364;46.974;18.916;2023-03-01T04:25:38;30.83;;;22.15;;
51286;SDS011;37364;46.974;18.916;2023-03-01T04:28:09;32.83;;;22.33;;
51286;SDS011;37364;46.974;18.916;2023-03-01T04:30:39;31.08;;;22.05;;
51286;SDS011;37364;46.974;18.916;2023-03-01T04:33:13;38.55;;;21.73;;
51286;SDS011;37364;46.974;18.916;2023-03-01T04:35:43;38.83;;;22.45;;
51286;SDS011;37364;46.974;18.916;2023-03-01T04:38:16;34.90;;;22.77;;
51286;SDS011;37364;46.974;18.916;2023-03-01T04:40:47;34.22;;;23.00;;
51286;SDS011;37364;46.974;18.916;2023-03-01T04:43:18;35.00;;;23.33;;
51286;SDS011;37364;46.974;18.916;2023-03-01T04:45:48;33.65;;;22.05;;
51286;SDS011;37364;46.974;18.916;2023-03-01T04:48:21;38.03;;;23.08;;
51286;SDS011;37364;46.974;18.916;2023-03-01T04:50:51;40.43;;;24.07;;
51286;SDS011;37364;46.974;18.916;2023-03-01T04:53:22;35.38;;;23.00;;
51286;SDS011;37364;46.974;18.916;2023-03-01T04:55:53;40.33;;;23.73;;
51286;SDS011;37364;46.974;18.916;2023-03-01T04:58:24;33.28;;;22.90;;
51286;SDS011;37364;46.974;18.916;2023-03-01T05:00:55;32.97;;;22.92;;
51286;SDS011;37364;46.974;18.916;2023-03-01T05:03:30;36.92;;;25.27;;
51286;SDS011;37364;46.974;18.916;2023-03-01T05:06:00;34.95;;;23.58;;
51286;SDS011;37364;46.974;18.916;2023-03-01T05:08:31;45.50;;;23.85;;
51286;SDS011;37364;46.974;18.916;2023-03-01T05:11:01;34.47;;;23.70;;
51286;SDS011;37364;46.974;18.916;2023-03-01T05:13:31;34.67;;;23.55;;
51286;SDS011;37364;46.974;18.916;2023-03-01T05:16:02;34.85;;;22.65;;
51286;SDS011;37364;46.974;18.916;2023-03-01T05:18:41;31.13;;;23.15;;
51286;SDS011;37364;46.974;18.916;2023-03-01T05:21:13;34.25;;;23.73;;
51286;SDS011;37364;46.974;18.916;2023-03-01T05:23:45;42.38;;;24.35;;
51286;SDS011;37364;46.974;18.916;2023-03-01T05:26:16;45.28;;;26.88;;
51286;SDS011;37364;46.974;18.916;2023-03-01T05:28:54;46.33;;;26.40;;
51286;SDS011;37364;46.974;18.916;2023-03-01T05:31:26;42.60;;;27.33;;
51286;SDS011;37364;46.974;18.916;2023-03-01T05:34:00;34.13;;;24.58;;
51286;SDS011;37364;46.974;18.916;2023-03-01T05:36:31;47.63;;;24.65;;
51286;SDS011;37364;46.974;18.916;2023-03-01T05:39:01;37.08;;;26.70;;
51286;SDS011;37364;46.974;18.916;2023-03-01T05:41:32;37.25;;;26.92;;
51286;SDS011;37364;46.974;18.916;2023-03-01T05:44:02;40.40;;;24.98;;
51286;SDS011;37364;46.974;18.916;2023-03-01T05:46:33;34.33;;;24.00;;
51286;SDS011;37364;46.974;18.916;2023-03-01T05:49:05;38.65;;;25.42;;
51286;SDS011;37364;46.974;18.916;2023-03-01T05:51:35;42.33;;;25.15;;
51286;SDS011;37364;46.974;18.916;2023-03-01T05:54:07;38.65;;;24.30;;
51286;SDS011;37364;46.974;18.916;2023-03-01T05:56:37;37.95;;;25.73;;
51286;SDS011;37364;46.974;18.916;2023-03-01T05:59:07;36.83;;;24.55;;
51286;SDS011;37364;46.974;18.916;2023-03-01T06:01:40;35.72;;;25.13;;
51286;SDS011;37364;46.974;18.916;2023-03-01T06:04:13;35.65;;;25.35;;
51286;SDS011;37364;46.974;18.916;2023-03-01T06:06:43;36.07;;;25.13;;
51286;SDS011;37364;46.974;18.916;2023-03-01T06:09:13;41.35;;;26.20;;
51286;SDS011;37364;46.974;18.916;2023-03-01T06:11:43;41.17;;;24.63;;
51286;SDS011;37364;46.974;18.916;2023-03-01T06:14:13;38.63;;;25.88;;
51286;SDS011;37364;46.974;18.916;2023-03-01T06:16:43;38.42;;;26.40;;
51286;SDS011;37364;46.974;18.916;2023-03-01T06:19:16;42.88;;;25.75;;
51286;SDS011;37364;46.974;18.916;2023-03-01T06:21:47;46.63;;;24.92;;
51286;SDS011;37364;46.974;18.916;2023-03-01T06:24:17;47.17;;;24.90;;
51286;SDS011;37364;46.974;18.916;2023-03-01T06:26:47;35.03;;;24.75;;
51286;SDS011;37364;46.974;18.916;2023-03-01T06:29:17;45.17;;;26.77;;
51286;SDS011;37364;46.974;18.916;2023-03-01T06:31:49;40.30;;;26.60;;
51286;SDS011;37364;46.974;18.916;2023-03-01T06:34:21;41.42;;;26.50;;
51286;SDS011;37364;46.974;18.916;2023-03-01T06:36:52;43.03;;;26.25;;
51286;SDS011;37364;46.974;18.916;2023-03-01T06:39:22;40.13;;;25.45;;
51286;SDS011;37364;46.974;18.916;2023-03-01T06:41:53;45.33;;;25.67;;
51286;SDS011;37364;46.974;18.916;2023-03-01T06:44:23;39.65;;;27.15;;
51286;SDS011;37364;46.974;18.916;2023-03-01T06:46:53;39.97;;;26.98;;
51286;SDS011;37364;46.974;18.916;2023-03-01T06:49:26;43.63;;;27.50;;
51286;SDS011;37364;46.974;18.916;2023-03-01T06:51:57;41.67;;;26.63;;
51286;SDS011;37364;46.974;18.916;2023-03-01T06:54:27;39.03;;;24.80;;
51286;SDS011;37364;46.974;18.916;2023-03-01T06:56:58;38.35;;;25.65;;
51286;SDS011;37364;46.974;18.916;2023-03-01T06:59:28;44.47;;;25.33;;
51286;SDS011;37364;46.974;18.916;2023-03-01T07:01:59;40.33;;;24.98;;
51286;SDS011;37364;46.974;18.916;2023-03-01T07:04:32;45.75;;;25.85;;
51286;SDS011;37364;46.974;18.916;2023-03-01T07:07:03;42.40;;;28.58;;
51286;SDS011;37364;46.974;18.916;2023-03-01T07:09:33;37.35;;;26.35;;
51286;SDS011;37364;46.974;18.916;2023-03-01T07:12:04;43.45;;;25.45;;
51286;SDS011;37364;46.974;18.916;2023-03-01T07:14:34;38.05;;;25.23;;
51286;SDS011;37364;46.974;18.916;2023-03-01T07:17:04;37.75;;;24.35;;
51286;SDS011;37364;46.974;18.916;2023-03-01T07:19:38;35.63;;;23.58;;
51286;SDS011;37364;46.974;18.916;2023-03-01T07:22:08;37.53;;;24.00;;
51286;SDS011;37364;46.974;18.916;2023-03-01T07:24:39;37.40;;;25.25;;
51286;SDS011;37364;46.974;18.916;2023-03-01T07:27:10;38.20;;;24.25;;
51286;SDS011;37364;46.974;18.916;2023-03-01T07:29:41;37.90;;;23.98;;
51286;SDS011;37364;46.974;18.916;2023-03-01T07:32:11;36.88;;;24.88;;
51286;SDS011;37364;46.974;18.916;2023-03-01T07:34:45;37.65;;;26.60;;
51286;SDS011;37364;46.974;18.916;2023-03-01T07:37:15;49.08;;;26.92;;
51286;SDS011;37364;46.974;18.916;2023-03-01T07:39:45;59.58;;;28.17;;
51286;SDS011;37364;46.974;18.916;2023-03-01T07:42:15;59.67;;;30.83;;
51286;SDS011;37364;46.974;18.916;2023-03-01T07:44:46;74.97;;;32.63;;
51286;SDS011;37364;46.974;18.916;2023-03-01T07:47:16;44.55;;;24.83;;
51286;SDS011;37364;46.974;18.916;2023-03-01T07:49:49;45.90;;;25.80;;
51286;SDS011;37364;46.974;18.916;2023-03-01T07:52:20;34.80;;;22.90;;
51286;SDS011;37364;46.974;18.916;2023-03-01T07:54:50;39.10;;;24.88;;
51286;SDS011;37364;46.974;18.916;2023-03-01T07:57:20;38.15;;;24.00;;
51286;SDS011;37364;46.974;18.916;2023-03-01T07:59:50;33.92;;;22.02;;
51286;SDS011;37364;46.974;18.916;2023-03-01T08:02:21;30.63;;;21.42;;
51286;SDS011;37364;46.974;18.916;2023-03-01T08:04:54;30.73;;;20.58;;
51286;SDS011;37364;46.974;18.916;2023-03-01T08:07:24;29.25;;;20.58;;
51286;SDS011;37364;46.974;18.916;2023-03-01T08:09:55;31.88;;;21.70;;
51286;SDS011;37364;46.974;18.916;2023-03-01T08:12:25;32.33;;;20.38;;
51286;SDS011;37364;46.974;18.916;2023-03-01T08:14:56;26.92;;;18.65;;
51286;SDS011;37364;46.974;18.916;2023-03-01T08:17:26;32.70;;;21.92;;
51286;SDS011;37364;46.974;18.916;2023-03-01T08:19:59;31.00;;;19.33;;
51286;SDS011;37364;46.974;18.916;2023-03-01T08:22:30;48.60;;;21.50;;
51286;SDS011;37364;46.974;18.916;2023-03-01T08:25:00;29.20;;;17.15;;
51286;SDS011;37364;46.974;18.916;2023-03-01T08:27:34;25.70;;;17.65;;
51286;SDS011;37364;46.974;18.916;2023-03-01T08:30:08;27.73;;;16.65;;
51286;SDS011;37364;46.974;18.916;2023-03-01T08:32:42;24.67;;;16.80;;
51286;SDS011;37364;46.974;18.916;2023-03-01T08:35:16;30.25;;;17.92;;
51286;SDS011;37364;46.974;18.916;2023-03-01T08:37:46;23.27;;;17.42;;
51286;SDS011;37364;46.974;18.916;2023-03-01T08:40:17;25.90;;;17.02;;
51286;SDS011;37364;46.974;18.916;2023-03-01T08:42:48;30.00;;;17.73;;
51286;SDS011;37364;46.974;18.916;2023-03-01T08:45:18;24.83;;;16.73;;
51286;SDS011;37364;46.974;18.916;2023-03-01T08:47:51;21.33;;;15.15;;
51286;SDS011;37364;46.974;18.916;2023-03-01T08:50:25;22.33;;;14.10;;
51286;SDS011;37364;46.974;18.916;2023-03-01T08:52:55;26.08;;;17.20;;
51286;SDS011;37364;46.974;18.916;2023-03-01T08:55:25;22.25;;;14.85;;
51286;SDS011;37364;46.974;18.916;2023-03-01T08:57:56;26.48;;;16.65;;
51286;SDS011;37364;46.974;18.916;2023-03-01T09:00:26;31.23;;;18.48;;
51286;SDS011;37364;46.974;18.916;2023-03-01T09:02:57;22.90;;;15.15;;
51286;SDS011;37364;46.974;18.916;2023-03-01T09:05:30;23.42;;;16.08;;
51286;SDS011;37364;46.974;18.916;2023-03-01T09:08:03;23.63;;;16.45;;
51286;SDS011;37364;46.974;18.916;2023-03-01T09:10:37;25.10;;;16.17;;
51286;SDS011;37364;46.974;18.916;2023-03-01T09:13:07;19.48;;;14.75;;
51286;SDS011;37364;46.974;18.916;2023-03-01T09:15:38;22.67;;;15.98;;
51286;SDS011;37364;46.974;18.916;2023-03-01T09:18:09;29.40;;;16.25;;
51286;SDS011;37364;46.974;18.916;2023-03-01T09:20:42;21.08;;;14.98;;
51286;SDS011;37364;46.974;18.916;2023-03-01T09:23:12;23.20;;;16.08;;
51286;SDS011;37364;46.974;18.916;2023-03-01T09:25:43;23.33;;;16.50;;
51286;SDS011;37364;46.974;18.916;2023-03-01T09:28:13;29.25;;;17.02;;
51286;SDS011;37364;46.974;18.916;2023-03-01T09:30:57;28.67;;;17.85;;
51286;SDS011;37364;46.974;18.916;2023-03-01T09:36:03;24.55;;;15.32;;
51286;SDS011;37364;46.974;18.916;2023-03-01T09:38:36;26.10;;;15.65;;
51286;SDS011;37364;46.974;18.916;2023-03-01T09:41:09;21.98;;;15.95;;
51286;SDS011;37364;46.974;18.916;2023-03-01T09:43:44;25.88;;;15.95;;
51286;SDS011;37364;46.974;18.916;2023-03-01T09:46:22;25.45;;;16.73;;
51286;SDS011;37364;46.974;18.916;2023-03-01T09:48:55;25.25;;;15.73;;
51286;SDS011;37364;46.974;18.916;2023-03-01T09:51:32;27.27;;;16.95;;
51286;SDS011;37364;46.974;18.916;2023-03-01T09:54:04;23.63;;;16.58;;
51286;SDS011;37364;46.974;18.916;2023-03-01T09:56:37;29.10;;;17.80;;
51286;SDS011;37364;46.974;18.916;2023-03-01T10:01:51;26.73;;;16.95;;
51286;SDS011;37364;46.974;18.916;2023-03-01T10:04:34;25.00;;;17.38;;
51286;SDS011;37364;46.974;18.916;2023-03-01T10:09:52;36.08;;;19.00;;
51286;SDS011;37364;46.974;18.916;2023-03-01T10:12:23;27.48;;;18.17;;
51286;SDS011;37364;46.974;18.916;2023-03-01T10:15:10;26.65;;;16.80;;
51286;SDS011;37364;46.974;18.916;2023-03-01T10:17:44;27.58;;;18.38;;
51286;SDS011;37364;46.974;18.916;2023-03-01T10:20:21;28.92;;;17.05;;
51286;SDS011;37364;46.974;18.916;2023-03-01T10:22:56;25.42;;;16.10;;
51286;SDS011;37364;46.974;18.916;2023-03-01T10:25:36;25.65;;;16.90;;
51286;SDS011;37364;46.974;18.916;2023-03-01T10:28:17;25.33;;;16.05;;
51286;SDS011;37364;46.974;18.916;2023-03-01T10:30:54;19.77;;;15.80;;
51286;SDS011;37364;46.974;18.916;2023-03-01T10:33:28;36.77;;;20.53;;
51286;SDS011;37364;46.974;18.916;2023-03-01T10:36:01;29.25;;;17.48;;
51286;SDS011;37364;46.974;18.916;2023-03-01T10:38:47;24.88;;;16.50;;
51286;SDS011;37364;46.974;18.916;2023-03-01T10:41:19;20.75;;;15.25;;
51286;SDS011;37364;46.974;18.916;2023-03-01T10:43:51;26.55;;;15.90;;
51286;SDS011;37364;46.974;18.916;2023-03-01T10:46:27;20.23;;;15.48;;
51286;SDS011;37364;46.974;18.916;2023-03-01T10:49:15;22.58;;;15.55;;
51286;SDS011;37364;46.974;18.916;2023-03-01T10:51:47;27.20;;;14.88;;
51286;SDS011;37364;46.974;18.916;2023-03-01T10:54:22;27.70;;;14.82;;
51286;SDS011;37364;46.974;18.916;2023-03-01T10:56:58;28.15;;;15.45;;
51286;SDS011;37364;46.974;18.916;2023-03-01T10:59:31;24.37;;;15.37;;
51286;SDS011;37364;46.974;18.916;2023-03-01T11:04:59;20.23;;;14.93;;
51286;SDS011;37364;46.974;18.916;2023-03-01T11:07:32;34.47;;;16.13;;
51286;SDS011;37364;46.974;18.916;2023-03-01T11:10:20;23.33;;;15.68;;
51286;SDS011;37364;46.974;18.916;2023-03-01T11:12:52;20.20;;;15.90;;
51286;SDS011;37364;46.974;18.916;2023-03-01T11:15:34;22.30;;;15.20;;
51286;SDS011;37364;46.974;18.916;2023-03-01T11:18:05;25.27;;;16.00;;
51286;SDS011;37364;46.974;18.916;2023-03-01T11:21:02;25.90;;;17.23;;
51286;SDS011;37364;46.974;18.916;2023-03-01T11:23:35;26.03;;;16.90;;
51286;SDS011;37364;46.974;18.916;2023-03-01T11:28:42;23.17;;;15.57;;
51286;SDS011;37364;46.974;18.916;2023-03-01T11:31:19;32.05;;;16.40;;
51286;SDS011;37364;46.974;18.916;2023-03-01T11:36:26;23.65;;;15.07;;
51286;SDS011;37364;46.974;18.916;2023-03-01T11:39:04;20.08;;;14.48;;
51286;SDS011;37364;46.974;18.916;2023-03-01T11:41:46;20.77;;;13.32;;
51286;SDS011;37364;46.974;18.916;2023-03-01T11:44:25;25.83;;;14.85;;
51286;SDS011;37364;46.974;18.916;2023-03-01T11:47:05;22.60;;;16.42;;
51286;SDS011;37364;46.974;18.916;2023-03-01T11:49:55;23.45;;;15.05;;
51286;SDS011;37364;46.974;18.916;2023-03-01T11:52:53;18.80;;;13.45;;
51286;SDS011;37364;46.974;18.916;2023-03-01T11:55:36;19.58;;;14.52;;
51286;SDS011;37364;46.974;18.916;2023-03-01T11:58:29;21.73;;;13.32;;
51286;SDS011;37364;46.974;18.916;2023-03-01T12:01:14;27.95;;;14.30;;
51286;SDS011;37364;46.974;18.916;2023-03-01T12:04:18;22.13;;;13.07;;
51286;SDS011;37364;46.974;18.916;2023-03-01T12:07:01;30.38;;;14.55;;
51286;SDS011;37364;46.974;18.916;2023-03-01T12:09:44;31.48;;;14.23;;
51286;SDS011;37364;46.974;18.916;2023-03-01T12:12:34;25.65;;;13.93;;
51286;SDS011;37364;46.974;18.916;2023-03-01T12:15:30;16.33;;;12.60;;
51286;SDS011;37364;46.974;18.916;2023-03-01T12:21:12;23.00;;;13.50;;
51286;SDS011;37364;46.974;18.916;2023-03-01T12:24:04;21.80;;;13.98;;
51286;SDS011;37364;46.974;18.916;2023-03-01T12:26:56;24.00;;;12.93;;
51286;SDS011;37364;46.974;18.916;2023-03-01T12:29:43;17.10;;;12.82;;
51286;SDS011;37364;46.974;18.916;2023-03-01T12:32:27;21.88;;;13.50;;
51286;SDS011;37364;46.974;18.916;2023-03-01T12:35:25;13.90;;;11.63;;
51286;SDS011;37364;46.974;18.916;2023-03-01T12:38:11;20.88;;;13.57;;
51286;SDS011;37364;46.974;18.916;2023-03-01T12:40:58;23.85;;;13.95;;
51286;SDS011;37364;46.974;18.916;2023-03-01T12:43:47;18.23;;;12.25;;
51286;SDS011;37364;46.974;18.916;2023-03-01T12:46:37;16.73;;;12.13;;
51286;SDS011;37364;46.974;18.916;2023-03-01T12:49:24;33.10;;;11.77;;
51286;SDS011;37364;46.974;18.916;2023-03-01T12:52:01;21.45;;;12.07;;
51286;SDS011;37364;46.974;18.916;2023-03-01T12:54:39;18.33;;;13.00;;
51286;SDS011;37364;46.974;18.916;2023-03-01T12:57:12;18.30;;;13.13;;
51286;SDS011;37364;46.974;18.916;2023-03-01T12:59:50;17.08;;;12.55;;
51286;SDS011;37364;46.974;18.916;2023-03-01T13:02:30;19.05;;;12.48;;
51286;SDS011;37364;46.974;18.916;2023-03-01T13:05:14;23.67;;;13.43;;
51286;SDS011;37364;46.974;18.916;2023-03-01T13:08:00;21.05;;;13.32;;
51286;SDS011;37364;46.974;18.916;2023-03-01T13:10:40;18.88;;;12.90;;
51286;SDS011;37364;46.974;18.916;2023-03-01T13:13:20;14.98;;;11.20;;
51286;SDS011;37364;46.974;18.916;2023-03-01T13:15:51;22.33;;;13.52;;
51286;SDS011;37364;46.974;18.916;2023-03-01T13:18:32;16.45;;;11.80;;
51286;SDS011;37364;46.974;18.916;2023-03-01T13:21:05;16.25;;;11.13;;
51286;SDS011;37364;46.974;18.916;2023-03-01T13:23:36;16.80;;;11.80;;
51286;SDS011;37364;46.974;18.916;2023-03-01T13:26:10;21.00;;;11.82;;
51286;SDS011;37364;46.974;18.916;2023-03-01T13:28:55;27.20;;;16.15;;
51286;SDS011;37364;46.974;18.916;2023-03-01T13:37:22;16.92;;;11.68;;
51286;SDS011;37364;46.974;18.916;2023-03-01T13:39:57;19.67;;;12.77;;
51286;SDS011;37364;46.974;18.916;2023-03-01T13:42:36;26.88;;;13.63;;
51286;SDS011;37364;46.974;18.916;2023-03-01T13:45:17;21.15;;;11.73;;
51286;SDS011;37364;46.974;18.916;2023-03-01T13:47:54;15.88;;;11.80;;
51286;SDS011;37364;46.974;18.916;2023-03-01T13:50:28;19.13;;;11.82;;
51286;SDS011;37364;46.974;18.916;2023-03-01T13:53:17;19.42;;;12.13;;
51286;SDS011;37364;46.974;18.916;2023-03-01T13:55:50;22.15;;;13.65;;
51286;SDS011;37364;46.974;18.916;2023-03-01T13:58:26;24.83;;;12.82;;
51286;SDS011;37364;46.974;18.916;2023-03-01T14:00:59;23.38;;;14.45;;
51286;SDS011;37364;46.974;18.916;2023-03-01T14:03:31;19.80;;;12.82;;
51286;SDS011;37364;46.974;18.916;2023-03-01T14:06:04;26.55;;;11.27;;
51286;SDS011;37364;46.974;18.916;2023-03-01T14:08:44;16.92;;;12.13;;
51286;SDS011;37364;46.974;18.916;2023-03-01T14:11:21;17.17;;;11.95;;
51286;SDS011;37364;46.974;18.916;2023-03-01T14:14:10;13.88;;;10.70;;
51286;SDS011;37364;46.974;18.916;2023-03-01T14:16:49;12.97;;;9.83;;
51286;SDS011;37364;46.974;18.916;2023-03-01T14:19:28;20.90;;;11.93;;
51286;SDS011;37364;46.974;18.916;2023-03-01T14:22:02;15.18;;;11.38;;
51286;SDS011;37364;46.974;18.916;2023-03-01T14:24:48;16.15;;;9.77;;
51286;SDS011;37364;46.974;18.916;2023-03-01T14:27:20;16.58;;;10.20;;
51286;SDS011;37364;46.974;18.916;2023-03-01T14:29:56;13.00;;;9.45;;
51286;SDS011;37364;46.974;18.916;2023-03-01T14:32:29;12.60;;;10.00;;
51286;SDS011;37364;46.974;18.916;2023-03-01T14:35:00;19.83;;;10.52;;
51286;SDS011;37364;46.974;18.916;2023-03-01T14:37:31;23.33;;;12.45;;
51286;SDS011;37364;46.974;18.916;2023-03-01T14:40:20;14.25;;;10.38;;
51286;SDS011;37364;46.974;18.916;2023-03-01T14:42:53;11.93;;;8.38;;
51286;SDS011;37364;46.974;18.916;2023-03-01T14:45:26;12.52;;;9.20;;
51286;SDS011;37364;46.974;18.916;2023-03-01T14:48:00;17.45;;;9.02;;
51286;SDS011;37364;46.974;18.916;2023-03-01T14:50:32;13.45;;;9.55;;
51286;SDS011;37364;46.974;18.916;2023-03-01T14:53:06;16.45;;;9.25;;
51286;SDS011;37364;46.974;18.916;2023-03-01T14:55:47;18.30;;;9.52;;
51286;SDS011;37364;46.974;18.916;2023-03-01T14:58:23;16.98;;;9.60;;
51286;SDS011;37364;46.974;18.916;2023-03-01T15:00:55;13.48;;;8.50;;
51286;SDS011;37364;46.974;18.916;2023-03-01T15:03:31;12.90;;;9.00;;
51286;SDS011;37364;46.974;18.916;2023-03-01T15:06:04;14.57;;;8.95;;
51286;SDS011;37364;46.974;18.916;2023-03-01T15:08:40;15.07;;;9.32;;
51286;SDS011;37364;46.974;18.916;2023-03-01T15:11:21;13.23;;;8.85;;
51286;SDS011;37364;46.974;18.916;2023-03-01T15:13:52;13.30;;;9.00;;